sensor_id;sensor_type;location;lat;lon;timestamp;P1;P2;P0
28647;PMS5003;17137;51.494;-0.262;2023-10-19T00:00:14;15;13;
28647;PMS5003;17137;51.494;-0.262;2023-10-19T00:00:45;16;13;
28647;PMS5003;17137;51.494;-0.262;2023-10-19T00:01:16;16;13;
28647;PMS5003;17137;51.494;-0.262;2023-10-19T00:01:46;15;13;
28647;PMS5003;17137;51.494;-0.262;2023-10-19T00:02:17;15;13;
28647;PMS5003;17137;51.494;-0.262;2023-10-19T00:02:48;15;13;
28647;PMS5003;17137;51.494;-0.262;2023-10-19T00:03:19;15;13;
28647;PMS5003;17137;51.494;-0.262;2023-10-19T00:03:49;15;13;
28647;PMS5003;17137;51.494;-0.262;2023-10-19T00:04:19;15;13;
28647;PMS5003;17137;51.494;-0.262;2023-10-19T00:04:50;16;13;
28647;PMS5003;17137;51.494;-0.262;2023-10-19T00:05:20;16;13;
28647;PMS5003;17137;51.494;-0.262;2023-10-19T00:05:50;16;13;
28647;PMS5003;17137;51.494;-0.262;2023-10-19T00:06:20;13;12;
28647;PMS5003;17137;51.494;-0.262;2023-10-19T00:06:51;13;12;
28647;PMS5003;17137;51.494;-0.262;2023-10-19T00:07:22;13;12;
28647;PMS5003;17137;51.494;-0.262;2023-10-19T00:07:52;12;12;
28647;PMS5003;17137;51.494;-0.262;2023-10-19T00:08:22;12;12;
28647;PMS5003;17137;51.494;-0.262;2023-10-19T00:08:52;12;12;
28647;PMS5003;17137;51.494;-0.262;2023-10-19T00:09:23;14;13;
28647;PMS5003;17137;51.494;-0.262;2023-10-19T00:09:53;14;13;
28647;PMS5003;17137;51.494;-0.262;2023-10-19T00:10:23;14;13;
28647;PMS5003;17137;51.494;-0.262;2023-10-19T00:10:54;20;14;
28647;PMS5003;17137;51.494;-0.262;2023-10-19T00:11:24;20;14;
28647;PMS5003;17137;51.494;-0.262;2023-10-19T00:12:00;20;14;
28647;PMS5003;17137;51.494;-0.262;2023-10-19T00:12:30;21;16;
28647;PMS5003;17137;51.494;-0.262;2023-10-19T00:13:00;21;16;
28647;PMS5003;17137;51.494;-0.262;2023-10-19T00:13:30;21;16;
28647;PMS5003;17137;51.494;-0.262;2023-10-19T00:14:00;20;14;
28647;PMS5003;17137;51.494;-0.262;2023-10-19T00:14:31;20;15;
28647;PMS5003;17137;51.494;-0.262;2023-10-19T00:15:01;20;15;
28647;PMS5003;17137;51.494;-0.262;2023-10-19T00:15:31;20;15;
28647;PMS5003;17137;51.494;-0.262;2023-10-19T00:16:02;20;15;
28647;PMS5003;17137;51.494;-0.262;2023-10-19T00:16:33;20;15;
28647;PMS5003;17137;51.494;-0.262;2023-10-19T00:17:03;20;15;
28647;PMS5003;17137;51.494;-0.262;2023-10-19T00:17:33;20;15;
28647;PMS5003;17137;51.494;-0.262;2023-10-19T00:18:04;20;14;
28647;PMS5003;17137;51.494;-0.262;2023-10-19T00:18:34;21;14;
28647;PMS5003;17137;51.494;-0.262;2023-10-19T00:19:04;21;14;
28647;PMS5003;17137;51.494;-0.262;2023-10-19T00:19:34;21;14;
28647;PMS5003;17137;51.494;-0.262;2023-10-19T00:20:05;21;14;
28647;PMS5003;17137;51.494;-0.262;2023-10-19T00:20:36;21;14;
28647;PMS5003;17137;51.494;-0.262;2023-10-19T00:21:07;21;14;
28647;PMS5003;17137;51.494;-0.262;2023-10-19T00:21:37;22;15;
28647;PMS5003;17137;51.494;-0.262;2023-10-19T00:22:07;22;15;
28647;PMS5003;17137;51.494;-0.262;2023-10-19T00:22:37;22;15;
28647;PMS5003;17137;51.494;-0.262;2023-10-19T00:23:07;22;15;
28647;PMS5003;17137;51.494;-0.262;2023-10-19T00:23:38;22;15;
28647;PMS5003;17137;51.494;-0.262;2023-10-19T00:24:08;22;15;
28647;PMS5003;17137;51.494;-0.262;2023-10-19T00:24:38;19;15;
28647;PMS5003;17137;51.494;-0.262;2023-10-19T00:25:08;19;15;
28647;PMS5003;17137;51.494;-0.262;2023-10-19T00:25:38;19;15;
28647;PMS5003;17137;51.494;-0.262;2023-10-19T00:26:09;15;15;
28647;PMS5003;17137;51.494;-0.262;2023-10-19T00:26:39;15;15;
28647;PMS5003;17137;51.494;-0.262;2023-10-19T00:27:10;15;15;
28647;PMS5003;17137;51.494;-0.262;2023-10-19T00:27:40;15;14;
28647;PMS5003;17137;51.494;-0.262;2023-10-19T00:28:10;15;14;
28647;PMS5003;17137;51.494;-0.262;2023-10-19T00:28:40;16;14;
28647;PMS5003;17137;51.494;-0.262;2023-10-19T00:29:10;18;14;
28647;PMS5003;17137;51.494;-0.262;2023-10-19T00:29:41;18;14;
28647;PMS5003;17137;51.494;-0.262;2023-10-19T00:30:12;18;14;
28647;PMS5003;17137;51.494;-0.262;2023-10-19T00:30:42;18;16;
28647;PMS5003;17137;51.494;-0.262;2023-10-19T00:31:12;18;16;
28647;PMS5003;17137;51.494;-0.262;2023-10-19T00:31:43;18;16;
28647;PMS5003;17137;51.494;-0.262;2023-10-19T00:32:13;19;17;
28647;PMS5003;17137;51.494;-0.262;2023-10-19T00:32:43;19;17;
28647;PMS5003;17137;51.494;-0.262;2023-10-19T00:33:13;19;17;
28647;PMS5003;17137;51.494;-0.262;2023-10-19T00:33:43;18;16;
28647;PMS5003;17137;51.494;-0.262;2023-10-19T00:34:14;18;16;
28647;PMS5003;17137;51.494;-0.262;2023-10-19T00:34:44;18;16;
28647;PMS5003;17137;51.494;-0.262;2023-10-19T00:35:14;18;16;
28647;PMS5003;17137;51.494;-0.262;2023-10-19T00:35:44;18;16;
28647;PMS5003;17137;51.494;-0.262;2023-10-19T00:36:15;18;16;
28647;PMS5003;17137;51.494;-0.262;2023-10-19T00:36:45;19;16;
28647;PMS5003;17137;51.494;-0.262;2023-10-19T00:37:15;19;17;
28647;PMS5003;17137;51.494;-0.262;2023-10-19T00:37:45;19;17;
28647;PMS5003;17137;51.494;-0.262;2023-10-19T00:38:15;19;15;
28647;PMS5003;17137;51.494;-0.262;2023-10-19T00:38:46;20;16;
28647;PMS5003;17137;51.494;-0.262;2023-10-19T00:39:17;20;16;
28647;PMS5003;17137;51.494;-0.262;2023-10-19T00:39:47;22;17;
28647;PMS5003;17137;51.494;-0.262;2023-10-19T00:40:17;22;17;
28647;PMS5003;17137;51.494;-0.262;2023-10-19T00:40:51;22;16;
28647;PMS5003;17137;51.494;-0.262;2023-10-19T00:41:22;20;15;
28647;PMS5003;17137;51.494;-0.262;2023-10-19T00:41:54;20;15;
28647;PMS5003;17137;51.494;-0.262;2023-10-19T00:42:24;21;15;
28647;PMS5003;17137;51.494;-0.262;2023-10-19T00:42:54;22;17;
28647;PMS5003;17137;51.494;-0.262;2023-10-19T00:43:26;22;17;
28647;PMS5003;17137;51.494;-0.262;2023-10-19T00:43:57;22;17;
28647;PMS5003;17137;51.494;-0.262;2023-10-19T00:44:28;19;15;
28647;PMS5003;17137;51.494;-0.262;2023-10-19T00:44:58;19;15;
28647;PMS5003;17137;51.494;-0.262;2023-10-19T00:45:28;19;15;
28647;PMS5003;17137;51.494;-0.262;2023-10-19T00:45:59;19;15;
28647;PMS5003;17137;51.494;-0.262;2023-10-19T00:46:29;19;15;
28647;PMS5003;17137;51.494;-0.262;2023-10-19T00:47:00;19;15;
28647;PMS5003;17137;51.494;-0.262;2023-10-19T00:47:30;19;14;
28647;PMS5003;17137;51.494;-0.262;2023-10-19T00:48:00;20;14;
28647;PMS5003;17137;51.494;-0.262;2023-10-19T00:48:31;20;14;
28647;PMS5003;17137;51.494;-0.262;2023-10-19T00:49:03;21;16;
28647;PMS5003;17137;51.494;-0.262;2023-10-19T00:49:34;21;16;
28647;PMS5003;17137;51.494;-0.262;2023-10-19T00:50:05;21;16;
28647;PMS5003;17137;51.494;-0.262;2023-10-19T00:50:37;20;14;
28647;PMS5003;17137;51.494;-0.262;2023-10-19T00:51:07;20;14;
28647;PMS5003;17137;51.494;-0.262;2023-10-19T00:51:38;19;14;
28647;PMS5003;17137;51.494;-0.262;2023-10-19T00:52:10;19;14;
28647;PMS5003;17137;51.494;-0.262;2023-10-19T00:52:40;19;14;
28647;PMS5003;17137;51.494;-0.262;2023-10-19T00:53:11;20;14;
28647;PMS5003;17137;51.494;-0.262;2023-10-19T00:53:42;20;16;
28647;PMS5003;17137;51.494;-0.262;2023-10-19T00:54:14;20;16;
28647;PMS5003;17137;51.494;-0.262;2023-10-19T00:54:47;20;16;
28647;PMS5003;17137;51.494;-0.262;2023-10-19T00:55:18;20;16;
28647;PMS5003;17137;51.494;-0.262;2023-10-19T00:55:49;20;16;
28647;PMS5003;17137;51.494;-0.262;2023-10-19T00:56:19;20;16;
28647;PMS5003;17137;51.494;-0.262;2023-10-19T00:56:52;21;16;
28647;PMS5003;17137;51.494;-0.262;2023-10-19T00:57:23;21;16;
28647;PMS5003;17137;51.494;-0.262;2023-10-19T00:57:54;21;16;
28647;PMS5003;17137;51.494;-0.262;2023-10-19T00:58:25;23;17;
28647;PMS5003;17137;51.494;-0.262;2023-10-19T00:58:55;23;17;
28647;PMS5003;17137;51.494;-0.262;2023-10-19T00:59:26;23;17;
28647;PMS5003;17137;51.494;-0.262;2023-10-19T00:59:56;24;18;
28647;PMS5003;17137;51.494;-0.262;2023-10-19T01:00:26;25;18;
28647;PMS5003;17137;51.494;-0.262;2023-10-19T01:00:57;25;18;
28647;PMS5003;17137;51.494;-0.262;2023-10-19T01:01:29;25;18;
28647;PMS5003;17137;51.494;-0.262;2023-10-19T01:02:01;24;18;
28647;PMS5003;17137;51.494;-0.262;2023-10-19T01:02:31;24;18;
28647;PMS5003;17137;51.494;-0.262;2023-10-19T01:03:02;23;19;
28647;PMS5003;17137;51.494;-0.262;2023-10-19T01:03:33;23;19;
28647;PMS5003;17137;51.494;-0.262;2023-10-19T01:04:04;22;19;
28647;PMS5003;17137;51.494;-0.262;2023-10-19T01:04:34;26;20;
28647;PMS5003;17137;51.494;-0.262;2023-10-19T01:05:05;30;22;
28647;PMS5003;17137;51.494;-0.262;2023-10-19T01:05:35;31;24;
28647;PMS5003;17137;51.494;-0.262;2023-10-19T01:06:05;31;24;
28647;PMS5003;17137;51.494;-0.262;2023-10-19T01:06:35;29;24;
28647;PMS5003;17137;51.494;-0.262;2023-10-19T01:07:05;30;24;
28647;PMS5003;17137;51.494;-0.262;2023-10-19T01:07:36;30;24;
28647;PMS5003;17137;51.494;-0.262;2023-10-19T01:08:06;31;24;
28647;PMS5003;17137;51.494;-0.262;2023-10-19T01:08:37;31;24;
28647;PMS5003;17137;51.494;-0.262;2023-10-19T01:09:07;32;26;
28647;PMS5003;17137;51.494;-0.262;2023-10-19T01:09:37;30;24;
28647;PMS5003;17137;51.494;-0.262;2023-10-19T01:10:08;27;23;
28647;PMS5003;17137;51.494;-0.262;2023-10-19T01:10:39;28;24;
28647;PMS5003;17137;51.494;-0.262;2023-10-19T01:11:10;28;24;
28647;PMS5003;17137;51.494;-0.262;2023-10-19T01:11:42;28;24;
28647;PMS5003;17137;51.494;-0.262;2023-10-19T01:12:12;26;23;
28647;PMS5003;17137;51.494;-0.262;2023-10-19T01:12:43;26;22;
28647;PMS5003;17137;51.494;-0.262;2023-10-19T01:13:13;29;23;
28647;PMS5003;17137;51.494;-0.262;2023-10-19T01:13:43;27;23;
28647;PMS5003;17137;51.494;-0.262;2023-10-19T01:14:21;26;22;
28647;PMS5003;17137;51.494;-0.262;2023-10-19T01:15:08;25;22;
28647;PMS5003;17137;51.494;-0.262;2023-10-19T01:15:40;25;22;
28647;PMS5003;17137;51.494;-0.262;2023-10-19T01:16:11;24;21;
28647;PMS5003;17137;51.494;-0.262;2023-10-19T01:16:42;22;20;
28647;PMS5003;17137;51.494;-0.262;2023-10-19T01:17:12;22;18;
28647;PMS5003;17137;51.494;-0.262;2023-10-19T01:17:43;22;18;
28647;PMS5003;17137;51.494;-0.262;2023-10-19T01:18:14;22;20;
28647;PMS5003;17137;51.494;-0.262;2023-10-19T01:18:45;20;18;
28647;PMS5003;17137;51.494;-0.262;2023-10-19T01:19:15;20;18;
28647;PMS5003;17137;51.494;-0.262;2023-10-19T01:19:45;20;18;
28647;PMS5003;17137;51.494;-0.262;2023-10-19T01:20:16;20;18;
28647;PMS5003;17137;51.494;-0.262;2023-10-19T01:20:48;20;18;
28647;PMS5003;17137;51.494;-0.262;2023-10-19T01:21:20;20;18;
28647;PMS5003;17137;51.494;-0.262;2023-10-19T01:21:51;18;17;
28647;PMS5003;17137;51.494;-0.262;2023-10-19T01:22:22;18;17;
28647;PMS5003;17137;51.494;-0.262;2023-10-19T01:22:52;18;17;
28647;PMS5003;17137;51.494;-0.262;2023-10-19T01:23:23;18;17;
28647;PMS5003;17137;51.494;-0.262;2023-10-19T01:23:53;18;17;
28647;PMS5003;17137;51.494;-0.262;2023-10-19T01:24:24;18;17;
28647;PMS5003;17137;51.494;-0.262;2023-10-19T01:24:54;18;17;
28647;PMS5003;17137;51.494;-0.262;2023-10-19T01:25:24;18;17;
28647;PMS5003;17137;51.494;-0.262;2023-10-19T01:25:55;18;17;
28647;PMS5003;17137;51.494;-0.262;2023-10-19T01:26:27;18;17;
28647;PMS5003;17137;51.494;-0.262;2023-10-19T01:26:57;18;17;
28647;PMS5003;17137;51.494;-0.262;2023-10-19T01:27:27;18;17;
28647;PMS5003;17137;51.494;-0.262;2023-10-19T01:27:57;18;17;
28647;PMS5003;17137;51.494;-0.262;2023-10-19T01:28:28;18;17;
28647;PMS5003;17137;51.494;-0.262;2023-10-19T01:28:59;18;17;
28647;PMS5003;17137;51.494;-0.262;2023-10-19T01:29:29;16;16;
28647;PMS5003;17137;51.494;-0.262;2023-10-19T01:30:00;15;15;
28647;PMS5003;17137;51.494;-0.262;2023-10-19T01:30:30;15;15;
28647;PMS5003;17137;51.494;-0.262;2023-10-19T01:31:00;17;15;
28647;PMS5003;17137;51.494;-0.262;2023-10-19T01:31:31;17;15;
28647;PMS5003;17137;51.494;-0.262;2023-10-19T01:32:02;17;16;
28647;PMS5003;17137;51.494;-0.262;2023-10-19T01:32:32;17;14;
28647;PMS5003;17137;51.494;-0.262;2023-10-19T01:33:03;17;14;
28647;PMS5003;17137;51.494;-0.262;2023-10-19T01:33:33;17;14;
28647;PMS5003;17137;51.494;-0.262;2023-10-19T01:34:03;16;13;
28647;PMS5003;17137;51.494;-0.262;2023-10-19T01:34:34;16;13;
28647;PMS5003;17137;51.494;-0.262;2023-10-19T01:35:04;16;13;
28647;PMS5003;17137;51.494;-0.262;2023-10-19T01:35:35;14;12;
28647;PMS5003;17137;51.494;-0.262;2023-10-19T01:36:05;14;12;
28647;PMS5003;17137;51.494;-0.262;2023-10-19T01:36:36;14;12;
28647;PMS5003;17137;51.494;-0.262;2023-10-19T01:37:06;14;13;
28647;PMS5003;17137;51.494;-0.262;2023-10-19T01:37:36;14;13;
28647;PMS5003;17137;51.494;-0.262;2023-10-19T01:38:07;14;13;
28647;PMS5003;17137;51.494;-0.262;2023-10-19T01:38:37;16;13;
28647;PMS5003;17137;51.494;-0.262;2023-10-19T01:39:07;16;13;
28647;PMS5003;17137;51.494;-0.262;2023-10-19T01:39:37;16;13;
28647;PMS5003;17137;51.494;-0.262;2023-10-19T01:40:08;14;12;
28647;PMS5003;17137;51.494;-0.262;2023-10-19T01:40:39;14;12;
28647;PMS5003;17137;51.494;-0.262;2023-10-19T01:41:09;14;12;
28647;PMS5003;17137;51.494;-0.262;2023-10-19T01:41:39;14;12;
28647;PMS5003;17137;51.494;-0.262;2023-10-19T01:42:09;14;12;
28647;PMS5003;17137;51.494;-0.262;2023-10-19T01:42:40;14;12;
28647;PMS5003;17137;51.494;-0.262;2023-10-19T01:43:10;14;13;
28647;PMS5003;17137;51.494;-0.262;2023-10-19T01:43:41;14;13;
28647;PMS5003;17137;51.494;-0.262;2023-10-19T01:44:12;14;13;
28647;PMS5003;17137;51.494;-0.262;2023-10-19T01:44:42;17;14;
28647;PMS5003;17137;51.494;-0.262;2023-10-19T01:45:12;17;14;
28647;PMS5003;17137;51.494;-0.262;2023-10-19T01:45:43;17;14;
28647;PMS5003;17137;51.494;-0.262;2023-10-19T01:46:14;17;14;
28647;PMS5003;17137;51.494;-0.262;2023-10-19T01:46:45;17;14;
28647;PMS5003;17137;51.494;-0.262;2023-10-19T01:47:15;17;14;
28647;PMS5003;17137;51.494;-0.262;2023-10-19T01:47:46;15;14;
28647;PMS5003;17137;51.494;-0.262;2023-10-19T01:48:16;15;14;
28647;PMS5003;17137;51.494;-0.262;2023-10-19T01:48:46;15;14;
28647;PMS5003;17137;51.494;-0.262;2023-10-19T01:49:17;18;15;
28647;PMS5003;17137;51.494;-0.262;2023-10-19T01:49:47;18;15;
28647;PMS5003;17137;51.494;-0.262;2023-10-19T01:50:17;18;15;
28647;PMS5003;17137;51.494;-0.262;2023-10-19T01:50:47;19;15;
28647;PMS5003;17137;51.494;-0.262;2023-10-19T01:51:17;19;15;
28647;PMS5003;17137;51.494;-0.262;2023-10-19T01:51:48;19;15;
28647;PMS5003;17137;51.494;-0.262;2023-10-19T01:52:18;19;16;
28647;PMS5003;17137;51.494;-0.262;2023-10-19T01:52:48;19;16;
28647;PMS5003;17137;51.494;-0.262;2023-10-19T01:53:18;19;16;
28647;PMS5003;17137;51.494;-0.262;2023-10-19T01:53:49;19;15;
28647;PMS5003;17137;51.494;-0.262;2023-10-19T01:54:19;19;15;
28647;PMS5003;17137;51.494;-0.262;2023-10-19T01:54:49;19;15;
28647;PMS5003;17137;51.494;-0.262;2023-10-19T01:55:19;20;15;
28647;PMS5003;17137;51.494;-0.262;2023-10-19T01:55:50;20;15;
28647;PMS5003;17137;51.494;-0.262;2023-10-19T01:56:20;20;15;
28647;PMS5003;17137;51.494;-0.262;2023-10-19T01:56:51;20;15;
28647;PMS5003;17137;51.494;-0.262;2023-10-19T01:57:22;20;15;
28647;PMS5003;17137;51.494;-0.262;2023-10-19T01:57:52;20;15;
28647;PMS5003;17137;51.494;-0.262;2023-10-19T01:58:22;22;16;
28647;PMS5003;17137;51.494;-0.262;2023-10-19T01:58:53;22;16;
28647;PMS5003;17137;51.494;-0.262;2023-10-19T01:59:23;22;16;
28647;PMS5003;17137;51.494;-0.262;2023-10-19T01:59:54;20;16;
28647;PMS5003;17137;51.494;-0.262;2023-10-19T02:00:24;20;16;
28647;PMS5003;17137;51.494;-0.262;2023-10-19T02:00:59;20;16;
28647;PMS5003;17137;51.494;-0.262;2023-10-19T02:01:30;22;16;
28647;PMS5003;17137;51.494;-0.262;2023-10-19T02:02:00;22;16;
28647;PMS5003;17137;51.494;-0.262;2023-10-19T02:02:31;22;16;
28647;PMS5003;17137;51.494;-0.262;2023-10-19T02:03:01;22;16;
28647;PMS5003;17137;51.494;-0.262;2023-10-19T02:03:31;23;17;
28647;PMS5003;17137;51.494;-0.262;2023-10-19T02:04:03;23;17;
28647;PMS5003;17137;51.494;-0.262;2023-10-19T02:04:34;20;17;
28647;PMS5003;17137;51.494;-0.262;2023-10-19T02:05:05;20;16;
28647;PMS5003;17137;51.494;-0.262;2023-10-19T02:05:35;20;16;
28647;PMS5003;17137;51.494;-0.262;2023-10-19T02:06:05;21;16;
28647;PMS5003;17137;51.494;-0.262;2023-10-19T02:06:35;21;16;
28647;PMS5003;17137;51.494;-0.262;2023-10-19T02:07:06;19;14;
28647;PMS5003;17137;51.494;-0.262;2023-10-19T02:07:37;19;14;
28647;PMS5003;17137;51.494;-0.262;2023-10-19T02:08:07;19;14;
28647;PMS5003;17137;51.494;-0.262;2023-10-19T02:08:37;18;14;
28647;PMS5003;17137;51.494;-0.262;2023-10-19T02:09:08;18;15;
28647;PMS5003;17137;51.494;-0.262;2023-10-19T02:09:39;18;15;
28647;PMS5003;17137;51.494;-0.262;2023-10-19T02:10:10;18;15;
28647;PMS5003;17137;51.494;-0.262;2023-10-19T02:10:40;19;16;
28647;PMS5003;17137;51.494;-0.262;2023-10-19T02:11:14;19;16;
28647;PMS5003;17137;51.494;-0.262;2023-10-19T02:11:45;19;16;
28647;PMS5003;17137;51.494;-0.262;2023-10-19T02:12:16;20;16;
28647;PMS5003;17137;51.494;-0.262;2023-10-19T02:12:47;20;16;
28647;PMS5003;17137;51.494;-0.262;2023-10-19T02:13:17;20;16;
28647;PMS5003;17137;51.494;-0.262;2023-10-19T02:13:47;21;17;
28647;PMS5003;17137;51.494;-0.262;2023-10-19T02:14:19;21;17;
28647;PMS5003;17137;51.494;-0.262;2023-10-19T02:14:49;21;17;
28647;PMS5003;17137;51.494;-0.262;2023-10-19T02:15:19;19;16;
28647;PMS5003;17137;51.494;-0.262;2023-10-19T02:15:49;19;16;
28647;PMS5003;17137;51.494;-0.262;2023-10-19T02:16:20;19;16;
28647;PMS5003;17137;51.494;-0.262;2023-10-19T02:16:52;19;16;
28647;PMS5003;17137;51.494;-0.262;2023-10-19T02:17:23;20;16;
28647;PMS5003;17137;51.494;-0.262;2023-10-19T02:17:53;20;16;
28647;PMS5003;17137;51.494;-0.262;2023-10-19T02:18:23;20;15;
28647;PMS5003;17137;51.494;-0.262;2023-10-19T02:18:53;20;15;
28647;PMS5003;17137;51.494;-0.262;2023-10-19T02:19:24;20;15;
28647;PMS5003;17137;51.494;-0.262;2023-10-19T02:19:56;20;16;
28647;PMS5003;17137;51.494;-0.262;2023-10-19T02:20:26;20;16;
28647;PMS5003;17137;51.494;-0.262;2023-10-19T02:20:56;21;17;
28647;PMS5003;17137;51.494;-0.262;2023-10-19T02:21:26;21;17;
28647;PMS5003;17137;51.494;-0.262;2023-10-19T02:21:57;21;17;
28647;PMS5003;17137;51.494;-0.262;2023-10-19T02:22:28;21;17;
28647;PMS5003;17137;51.494;-0.262;2023-10-19T02:22:58;22;17;
28647;PMS5003;17137;51.494;-0.262;2023-10-19T02:23:28;22;17;
28647;PMS5003;17137;51.494;-0.262;2023-10-19T02:23:59;22;17;
28647;PMS5003;17137;51.494;-0.262;2023-10-19T02:24:29;22;17;
28647;PMS5003;17137;51.494;-0.262;2023-10-19T02:24:59;22;17;
28647;PMS5003;17137;51.494;-0.262;2023-10-19T02:25:29;22;17;
28647;PMS5003;17137;51.494;-0.262;2023-10-19T02:26:00;22;17;
28647;PMS5003;17137;51.494;-0.262;2023-10-19T02:26:30;22;17;
28647;PMS5003;17137;51.494;-0.262;2023-10-19T02:27:00;22;17;
28647;PMS5003;17137;51.494;-0.262;2023-10-19T02:27:31;24;18;
28647;PMS5003;17137;51.494;-0.262;2023-10-19T02:28:01;24;18;
28647;PMS5003;17137;51.494;-0.262;2023-10-19T02:28:31;24;18;
28647;PMS5003;17137;51.494;-0.262;2023-10-19T02:29:01;21;18;
28647;PMS5003;17137;51.494;-0.262;2023-10-19T02:29:32;21;18;
28647;PMS5003;17137;51.494;-0.262;2023-10-19T02:30:02;21;18;
28647;PMS5003;17137;51.494;-0.262;2023-10-19T02:30:33;22;18;
28647;PMS5003;17137;51.494;-0.262;2023-10-19T02:31:03;22;18;
28647;PMS5003;17137;51.494;-0.262;2023-10-19T02:31:34;22;18;
28647;PMS5003;17137;51.494;-0.262;2023-10-19T02:32:05;19;18;
28647;PMS5003;17137;51.494;-0.262;2023-10-19T02:32:35;19;18;
28647;PMS5003;17137;51.494;-0.262;2023-10-19T02:33:05;19;18;
28647;PMS5003;17137;51.494;-0.262;2023-10-19T02:33:36;20;19;
28647;PMS5003;17137;51.494;-0.262;2023-10-19T02:34:07;20;19;
28647;PMS5003;17137;51.494;-0.262;2023-10-19T02:34:38;20;19;
28647;PMS5003;17137;51.494;-0.262;2023-10-19T02:35:08;20;18;
28647;PMS5003;17137;51.494;-0.262;2023-10-19T02:35:39;20;18;
28647;PMS5003;17137;51.494;-0.262;2023-10-19T02:36:09;20;18;
28647;PMS5003;17137;51.494;-0.262;2023-10-19T02:36:39;18;17;
28647;PMS5003;17137;51.494;-0.262;2023-10-19T02:37:09;18;17;
28647;PMS5003;17137;51.494;-0.262;2023-10-19T02:37:39;18;17;
28647;PMS5003;17137;51.494;-0.262;2023-10-19T02:38:10;18;18;
28647;PMS5003;17137;51.494;-0.262;2023-10-19T02:38:40;18;18;
28647;PMS5003;17137;51.494;-0.262;2023-10-19T02:39:11;18;18;
28647;PMS5003;17137;51.494;-0.262;2023-10-19T02:39:42;17;17;
28647;PMS5003;17137;51.494;-0.262;2023-10-19T02:40:13;17;17;
28647;PMS5003;17137;51.494;-0.262;2023-10-19T02:40:43;17;17;
28647;PMS5003;17137;51.494;-0.262;2023-10-19T02:41:14;18;18;
28647;PMS5003;17137;51.494;-0.262;2023-10-19T02:41:45;18;18;
28647;PMS5003;17137;51.494;-0.262;2023-10-19T02:42:16;18;18;
28647;PMS5003;17137;51.494;-0.262;2023-10-19T02:42:46;18;18;
28647;PMS5003;17137;51.494;-0.262;2023-10-19T02:43:17;18;18;
28647;PMS5003;17137;51.494;-0.262;2023-10-19T02:43:47;16;16;
28647;PMS5003;17137;51.494;-0.262;2023-10-19T02:44:18;16;16;
28647;PMS5003;17137;51.494;-0.262;2023-10-19T02:44:49;16;16;
28647;PMS5003;17137;51.494;-0.262;2023-10-19T02:45:19;16;16;
28647;PMS5003;17137;51.494;-0.262;2023-10-19T02:45:49;19;17;
28647;PMS5003;17137;51.494;-0.262;2023-10-19T02:46:19;19;17;
28647;PMS5003;17137;51.494;-0.262;2023-10-19T02:46:50;19;17;
28647;PMS5003;17137;51.494;-0.262;2023-10-19T02:47:22;19;18;
28647;PMS5003;17137;51.494;-0.262;2023-10-19T02:47:52;19;18;
28647;PMS5003;17137;51.494;-0.262;2023-10-19T02:48:22;19;18;
28647;PMS5003;17137;51.494;-0.262;2023-10-19T02:48:52;19;18;
28647;PMS5003;17137;51.494;-0.262;2023-10-19T02:49:22;19;18;
28647;PMS5003;17137;51.494;-0.262;2023-10-19T02:49:53;19;18;
28647;PMS5003;17137;51.494;-0.262;2023-10-19T02:50:23;22;18;
28647;PMS5003;17137;51.494;-0.262;2023-10-19T02:50:58;22;18;
28647;PMS5003;17137;51.494;-0.262;2023-10-19T02:51:28;22;18;
28647;PMS5003;17137;51.494;-0.262;2023-10-19T02:51:59;22;18;
28647;PMS5003;17137;51.494;-0.262;2023-10-19T02:52:29;21;17;
28647;PMS5003;17137;51.494;-0.262;2023-10-19T02:52:59;21;17;
28647;PMS5003;17137;51.494;-0.262;2023-10-19T02:53:30;23;16;
28647;PMS5003;17137;51.494;-0.262;2023-10-19T02:54:00;23;16;
28647;PMS5003;17137;51.494;-0.262;2023-10-19T02:54:30;23;16;
28647;PMS5003;17137;51.494;-0.262;2023-10-19T02:55:01;23;16;
28647;PMS5003;17137;51.494;-0.262;2023-10-19T02:55:31;23;16;
28647;PMS5003;17137;51.494;-0.262;2023-10-19T02:56:09;24;17;
28647;PMS5003;17137;51.494;-0.262;2023-10-19T02:56:40;24;17;
28647;PMS5003;17137;51.494;-0.262;2023-10-19T02:57:10;24;17;
28647;PMS5003;17137;51.494;-0.262;2023-10-19T02:57:41;24;17;
28647;PMS5003;17137;51.494;-0.262;2023-10-19T02:58:11;22;17;
28647;PMS5003;17137;51.494;-0.262;2023-10-19T02:58:42;22;17;
28647;PMS5003;17137;51.494;-0.262;2023-10-19T02:59:13;22;17;
28647;PMS5003;17137;51.494;-0.262;2023-10-19T02:59:43;21;15;
28647;PMS5003;17137;51.494;-0.262;2023-10-19T03:00:14;21;15;
28647;PMS5003;17137;51.494;-0.262;2023-10-19T03:00:44;21;15;
28647;PMS5003;17137;51.494;-0.262;2023-10-19T03:01:15;20;16;
28647;PMS5003;17137;51.494;-0.262;2023-10-19T03:01:46;20;16;
28647;PMS5003;17137;51.494;-0.262;2023-10-19T03:02:16;20;16;
28647;PMS5003;17137;51.494;-0.262;2023-10-19T03:02:47;21;18;
28647;PMS5003;17137;51.494;-0.262;2023-10-19T03:03:18;22;18;
28647;PMS5003;17137;51.494;-0.262;2023-10-19T03:03:48;22;18;
28647;PMS5003;17137;51.494;-0.262;2023-10-19T03:04:20;23;19;
28647;PMS5003;17137;51.494;-0.262;2023-10-19T03:04:50;23;19;
28647;PMS5003;17137;51.494;-0.262;2023-10-19T03:05:20;24;20;
28647;PMS5003;17137;51.494;-0.262;2023-10-19T03:05:51;20;18;
28647;PMS5003;17137;51.494;-0.262;2023-10-19T03:06:21;20;18;
28647;PMS5003;17137;51.494;-0.262;2023-10-19T03:06:52;20;18;
28647;PMS5003;17137;51.494;-0.262;2023-10-19T03:07:22;21;18;
28647;PMS5003;17137;51.494;-0.262;2023-10-19T03:07:52;21;18;
28647;PMS5003;17137;51.494;-0.262;2023-10-19T03:08:22;21;18;
28647;PMS5003;17137;51.494;-0.262;2023-10-19T03:08:53;20;18;
28647;PMS5003;17137;51.494;-0.262;2023-10-19T03:09:23;20;18;
28647;PMS5003;17137;51.494;-0.262;2023-10-19T03:09:53;20;18;
28647;PMS5003;17137;51.494;-0.262;2023-10-19T03:10:23;20;19;
28647;PMS5003;17137;51.494;-0.262;2023-10-19T03:10:53;20;19;
28647;PMS5003;17137;51.494;-0.262;2023-10-19T03:11:24;20;19;
28647;PMS5003;17137;51.494;-0.262;2023-10-19T03:11:54;21;18;
28647;PMS5003;17137;51.494;-0.262;2023-10-19T03:12:25;21;18;
28647;PMS5003;17137;51.494;-0.262;2023-10-19T03:12:55;21;18;
28647;PMS5003;17137;51.494;-0.262;2023-10-19T03:13:25;22;20;
28647;PMS5003;17137;51.494;-0.262;2023-10-19T03:13:55;22;20;
28647;PMS5003;17137;51.494;-0.262;2023-10-19T03:14:26;22;20;
28647;PMS5003;17137;51.494;-0.262;2023-10-19T03:14:56;25;21;
28647;PMS5003;17137;51.494;-0.262;2023-10-19T03:15:26;25;21;
28647;PMS5003;17137;51.494;-0.262;2023-10-19T03:15:57;25;21;
28647;PMS5003;17137;51.494;-0.262;2023-10-19T03:16:27;25;20;
28647;PMS5003;17137;51.494;-0.262;2023-10-19T03:16:57;25;20;
28647;PMS5003;17137;51.494;-0.262;2023-10-19T03:17:28;25;19;
28647;PMS5003;17137;51.494;-0.262;2023-10-19T03:17:58;23;18;
28647;PMS5003;17137;51.494;-0.262;2023-10-19T03:18:28;23;18;
28647;PMS5003;17137;51.494;-0.262;2023-10-19T03:18:58;23;18;
28647;PMS5003;17137;51.494;-0.262;2023-10-19T03:19:29;22;17;
28647;PMS5003;17137;51.494;-0.262;2023-10-19T03:19:59;22;17;